sensor_id;sensor_type;location;lat;lon;timestamp;temperature;humidity
59128;DHT22;44912;52.754;5.994;2024-01-06T00:00:29;4.00;99.90
59128;DHT22;44912;52.754;5.994;2024-01-06T00:02:54;3.90;99.90
59128;DHT22;44912;52.754;5.994;2024-01-06T00:05:20;3.90;99.90
59128;DHT22;44912;52.754;5.994;2024-01-06T00:07:45;3.90;99.90
59128;DHT22;44912;52.754;5.994;2024-01-06T00:10:11;3.90;99.90
59128;DHT22;44912;52.754;5.994;2024-01-06T00:12:37;3.90;99.90
59128;DHT22;44912;52.754;5.994;2024-01-06T00:15:03;3.90;99.90
59128;DHT22;44912;52.754;5.994;2024-01-06T00:17:29;3.90;99.90
59128;DHT22;44912;52.754;5.994;2024-01-06T00:19:55;4.00;99.90
59128;DHT22;44912;52.754;5.994;2024-01-06T00:22:20;4.00;99.90
59128;DHT22;44912;52.754;5.994;2024-01-06T00:24:46;3.90;99.90
59128;DHT22;44912;52.754;5.994;2024-01-06T00:27:12;3.90;99.90
59128;DHT22;44912;52.754;5.994;2024-01-06T00:29:39;3.90;99.90
59128;DHT22;44912;52.754;5.994;2024-01-06T00:32:05;3.90;99.90
59128;DHT22;44912;52.754;5.994;2024-01-06T00:34:30;3.90;99.90
59128;DHT22;44912;52.754;5.994;2024-01-06T00:36:56;3.90;99.90
59128;DHT22;44912;52.754;5.994;2024-01-06T00:39:22;3.90;99.90
59128;DHT22;44912;52.754;5.994;2024-01-06T00:41:47;4.00;99.90
59128;DHT22;44912;52.754;5.994;2024-01-06T00:44:13;3.90;99.90
59128;DHT22;44912;52.754;5.994;2024-01-06T00:46:39;3.90;99.90
59128;DHT22;44912;52.754;5.994;2024-01-06T00:49:05;3.90;99.90
59128;DHT22;44912;52.754;5.994;2024-01-06T00:51:30;3.90;99.90
59128;DHT22;44912;52.754;5.994;2024-01-06T00:53:56;3.90;99.90
59128;DHT22;44912;52.754;5.994;2024-01-06T00:56:22;3.80;99.90
59128;DHT22;44912;52.754;5.994;2024-01-06T00:58:48;3.80;99.90
59128;DHT22;44912;52.754;5.994;2024-01-06T01:01:13;3.80;99.90
59128;DHT22;44912;52.754;5.994;2024-01-06T01:03:39;3.70;99.90
59128;DHT22;44912;52.754;5.994;2024-01-06T01:06:05;3.70;99.90
59128;DHT22;44912;52.754;5.994;2024-01-06T01:08:30;3.70;99.90
59128;DHT22;44912;52.754;5.994;2024-01-06T01:10:56;3.70;99.90
59128;DHT22;44912;52.754;5.994;2024-01-06T01:13:22;3.70;99.90
59128;DHT22;44912;52.754;5.994;2024-01-06T01:15:48;3.60;99.90
59128;DHT22;44912;52.754;5.994;2024-01-06T01:18:14;3.60;99.90
59128;DHT22;44912;52.754;5.994;2024-01-06T01:20:40;3.50;99.90
59128;DHT22;44912;52.754;5.994;2024-01-06T01:23:07;3.60;99.90
59128;DHT22;44912;52.754;5.994;2024-01-06T01:25:33;3.60;99.90
59128;DHT22;44912;52.754;5.994;2024-01-06T01:27:59;3.50;99.90
59128;DHT22;44912;52.754;5.994;2024-01-06T01:30:24;3.50;99.90
59128;DHT22;44912;52.754;5.994;2024-01-06T01:32:50;3.50;99.90
59128;DHT22;44912;52.754;5.994;2024-01-06T01:35:16;3.50;99.90
59128;DHT22;44912;52.754;5.994;2024-01-06T01:37:41;3.40;99.90
59128;DHT22;44912;52.754;5.994;2024-01-06T01:40:07;3.40;99.90
59128;DHT22;44912;52.754;5.994;2024-01-06T01:42:33;3.40;99.90
59128;DHT22;44912;52.754;5.994;2024-01-06T01:44:59;3.40;99.90
59128;DHT22;44912;52.754;5.994;2024-01-06T01:47:25;3.40;99.90
59128;DHT22;44912;52.754;5.994;2024-01-06T01:49:53;3.40;99.90
59128;DHT22;44912;52.754;5.994;2024-01-06T01:52:20;3.30;99.90
59128;DHT22;44912;52.754;5.994;2024-01-06T01:54:46;3.30;99.90
59128;DHT22;44912;52.754;5.994;2024-01-06T01:57:13;3.30;99.90
59128;DHT22;44912;52.754;5.994;2024-01-06T01:59:39;3.30;99.90
59128;DHT22;44912;52.754;5.994;2024-01-06T02:02:06;3.30;99.90
59128;DHT22;44912;52.754;5.994;2024-01-06T02:04:32;3.30;99.90
59128;DHT22;44912;52.754;5.994;2024-01-06T02:06:57;3.30;99.90
59128;DHT22;44912;52.754;5.994;2024-01-06T02:09:23;3.30;99.90
59128;DHT22;44912;52.754;5.994;2024-01-06T02:11:52;3.30;99.90
59128;DHT22;44912;52.754;5.994;2024-01-06T02:14:18;3.30;99.90
59128;DHT22;44912;52.754;5.994;2024-01-06T02:16:44;3.30;99.90
59128;DHT22;44912;52.754;5.994;2024-01-06T02:19:11;3.30;99.90
59128;DHT22;44912;52.754;5.994;2024-01-06T02:21:42;3.30;99.90
59128;DHT22;44912;52.754;5.994;2024-01-06T02:24:08;3.30;99.90
59128;DHT22;44912;52.754;5.994;2024-01-06T02:26:33;3.30;99.90
59128;DHT22;44912;52.754;5.994;2024-01-06T02:28:59;3.30;99.90
59128;DHT22;44912;52.754;5.994;2024-01-06T02:31:24;3.30;99.90
59128;DHT22;44912;52.754;5.994;2024-01-06T02:33:50;3.30;99.90
59128;DHT22;44912;52.754;5.994;2024-01-06T02:36:16;3.30;99.90
59128;DHT22;44912;52.754;5.994;2024-01-06T02:38:41;3.30;99.90
59128;DHT22;44912;52.754;5.994;2024-01-06T02:41:07;3.30;99.90
59128;DHT22;44912;52.754;5.994;2024-01-06T02:43:32;3.30;99.90
59128;DHT22;44912;52.754;5.994;2024-01-06T02:45:58;3.30;99.90
59128;DHT22;44912;52.754;5.994;2024-01-06T02:48:24;3.30;99.90
59128;DHT22;44912;52.754;5.994;2024-01-06T02:50:49;3.20;99.90
59128;DHT22;44912;52.754;5.994;2024-01-06T02:53:15;3.30;99.90
59128;DHT22;44912;52.754;5.994;2024-01-06T02:55:40;3.20;99.90
59128;DHT22;44912;52.754;5.994;2024-01-06T02:58:06;3.20;99.90
59128;DHT22;44912;52.754;5.994;2024-01-06T03:00:32;3.20;99.90
59128;DHT22;44912;52.754;5.994;2024-01-06T03:02:57;3.20;99.90
59128;DHT22;44912;52.754;5.994;2024-01-06T03:05:23;3.20;99.90
59128;DHT22;44912;52.754;5.994;2024-01-06T03:07:48;3.20;99.90
59128;DHT22;44912;52.754;5.994;2024-01-06T03:10:14;3.10;99.90
59128;DHT22;44912;52.754;5.994;2024-01-06T03:12:40;3.10;99.90
59128;DHT22;44912;52.754;5.994;2024-01-06T03:15:06;3.10;99.90
59128;DHT22;44912;52.754;5.994;2024-01-06T03:17:32;3.10;99.90
59128;DHT22;44912;52.754;5.994;2024-01-06T03:19:57;3.10;99.90
59128;DHT22;44912;52.754;5.994;2024-01-06T03:22:23;3.10;99.90
59128;DHT22;44912;52.754;5.994;2024-01-06T03:24:48;3.10;99.90
59128;DHT22;44912;52.754;5.994;2024-01-06T03:27:14;3.00;99.90
59128;DHT22;44912;52.754;5.994;2024-01-06T03:29:40;3.00;99.90
59128;DHT22;44912;52.754;5.994;2024-01-06T03:32:06;3.10;99.90
59128;DHT22;44912;52.754;5.994;2024-01-06T03:34:32;3.00;99.90
59128;DHT22;44912;52.754;5.994;2024-01-06T03:36:57;3.00;99.90
59128;DHT22;44912;52.754;5.994;2024-01-06T03:39:23;2.90;99.90
59128;DHT22;44912;52.754;5.994;2024-01-06T03:41:49;3.00;99.90
59128;DHT22;44912;52.754;5.994;2024-01-06T03:44:14;2.90;99.90
59128;DHT22;44912;52.754;5.994;2024-01-06T03:46:40;2.90;99.90
59128;DHT22;44912;52.754;5.994;2024-01-06T03:49:06;2.90;99.90
59128;DHT22;44912;52.754;5.994;2024-01-06T03:51:31;2.90;99.90
59128;DHT22;44912;52.754;5.994;2024-01-06T03:53:57;2.90;99.90
59128;DHT22;44912;52.754;5.994;2024-01-06T03:56:22;2.90;99.90
59128;DHT22;44912;52.754;5.994;2024-01-06T03:58:48;2.90;99.90
59128;DHT22;44912;52.754;5.994;2024-01-06T04:01:13;2.90;99.90
59128;DHT22;44912;52.754;5.994;2024-01-06T04:03:39;2.90;99.90
59128;DHT22;44912;52.754;5.994;2024-01-06T04:06:08;2.80;99.90
59128;DHT22;44912;52.754;5.994;2024-01-06T04:08:36;2.90;99.90
59128;DHT22;44912;52.754;5.994;2024-01-06T04:11:02;2.80;99.90
59128;DHT22;44912;52.754;5.994;2024-01-06T04:13:28;2.90;99.90
59128;DHT22;44912;52.754;5.994;2024-01-06T04:15:53;2.90;99.90
59128;DHT22;44912;52.754;5.994;2024-01-06T04:18:19;2.80;99.90
59128;DHT22;44912;52.754;5.994;2024-01-06T04:20:45;2.80;99.90
59128;DHT22;44912;52.754;5.994;2024-01-06T04:23:10;2.80;99.90
59128;DHT22;44912;52.754;5.994;2024-01-06T04:25:36;2.80;99.90
59128;DHT22;44912;52.754;5.994;2024-01-06T04:28:01;2.80;99.90
59128;DHT22;44912;52.754;5.994;2024-01-06T04:30:27;2.80;99.90
59128;DHT22;44912;52.754;5.994;2024-01-06T04:32:53;2.80;99.90
59128;DHT22;44912;52.754;5.994;2024-01-06T04:35:20;2.80;99.90
59128;DHT22;44912;52.754;5.994;2024-01-06T04:37:46;2.80;99.90
59128;DHT22;44912;52.754;5.994;2024-01-06T04:40:12;2.80;99.90
59128;DHT22;44912;52.754;5.994;2024-01-06T04:42:38;2.70;99.90
59128;DHT22;44912;52.754;5.994;2024-01-06T04:45:04;2.70;99.90
59128;DHT22;44912;52.754;5.994;2024-01-06T04:47:30;2.80;99.90
59128;DHT22;44912;52.754;5.994;2024-01-06T04:49:56;2.80;99.90
59128;DHT22;44912;52.754;5.994;2024-01-06T04:52:22;2.80;99.90
59128;DHT22;44912;52.754;5.994;2024-01-06T04:54:47;2.70;99.90
59128;DHT22;44912;52.754;5.994;2024-01-06T04:57:13;2.80;99.90
59128;DHT22;44912;52.754;5.994;2024-01-06T04:59:39;2.80;99.90
59128;DHT22;44912;52.754;5.994;2024-01-06T05:02:05;2.70;99.90
59128;DHT22;44912;52.754;5.994;2024-01-06T05:04:31;2.70;99.90
59128;DHT22;44912;52.754;5.994;2024-01-06T05:06:58;2.80;99.90
59128;DHT22;44912;52.754;5.994;2024-01-06T05:09:25;2.80;99.90
59128;DHT22;44912;52.754;5.994;2024-01-06T05:11:50;2.80;99.90
59128;DHT22;44912;52.754;5.994;2024-01-06T05:14:16;2.80;99.90
59128;DHT22;44912;52.754;5.994;2024-01-06T05:16:41;2.80;99.90
59128;DHT22;44912;52.754;5.994;2024-01-06T05:19:08;2.80;99.90
59128;DHT22;44912;52.754;5.994;2024-01-06T05:21:34;2.80;99.90
59128;DHT22;44912;52.754;5.994;2024-01-06T05:24:00;2.90;99.90
59128;DHT22;44912;52.754;5.994;2024-01-06T05:26:26;2.80;99.90
59128;DHT22;44912;52.754;5.994;2024-01-06T05:28:52;2.80;99.90
59128;DHT22;44912;52.754;5.994;2024-01-06T05:31:18;2.80;99.90
59128;DHT22;44912;52.754;5.994;2024-01-06T05:33:43;2.80;99.90
59128;DHT22;44912;52.754;5.994;2024-01-06T05:36:09;2.80;99.90
59128;DHT22;44912;52.754;5.994;2024-01-06T05:38:36;2.80;99.90
59128;DHT22;44912;52.754;5.994;2024-01-06T05:41:02;2.80;99.90
59128;DHT22;44912;52.754;5.994;2024-01-06T05:43:28;2.80;99.90
59128;DHT22;44912;52.754;5.994;2024-01-06T05:45:53;2.80;99.90
59128;DHT22;44912;52.754;5.994;2024-01-06T05:48:19;2.80;99.90
59128;DHT22;44912;52.754;5.994;2024-01-06T05:50:45;2.80;99.90
59128;DHT22;44912;52.754;5.994;2024-01-06T05:53:11;2.80;99.90
59128;DHT22;44912;52.754;5.994;2024-01-06T05:55:36;2.80;99.90
59128;DHT22;44912;52.754;5.994;2024-01-06T05:58:02;2.80;99.90
59128;DHT22;44912;52.754;5.994;2024-01-06T06:00:28;2.80;99.90
59128;DHT22;44912;52.754;5.994;2024-01-06T06:02:57;2.80;99.90
59128;DHT22;44912;52.754;5.994;2024-01-06T06:05:22;2.80;99.90
59128;DHT22;44912;52.754;5.994;2024-01-06T06:07:48;2.80;99.90
59128;DHT22;44912;52.754;5.994;2024-01-06T06:10:14;2.70;99.90
59128;DHT22;44912;52.754;5.994;2024-01-06T06:12:41;2.80;99.90
59128;DHT22;44912;52.754;5.994;2024-01-06T06:15:07;2.70;99.90
59128;DHT22;44912;52.754;5.994;2024-01-06T06:17:33;2.70;99.90
59128;DHT22;44912;52.754;5.994;2024-01-06T06:19:59;2.70;99.90
59128;DHT22;44912;52.754;5.994;2024-01-06T06:22:25;2.70;99.90
59128;DHT22;44912;52.754;5.994;2024-01-06T06:24:59;2.70;99.90
59128;DHT22;44912;52.754;5.994;2024-01-06T06:27:26;2.70;99.90
59128;DHT22;44912;52.754;5.994;2024-01-06T06:29:55;2.80;99.90
59128;DHT22;44912;52.754;5.994;2024-01-06T06:32:21;2.80;99.90
59128;DHT22;44912;52.754;5.994;2024-01-06T06:34:47;2.80;99.90
59128;DHT22;44912;52.754;5.994;2024-01-06T06:37:12;2.70;99.90
59128;DHT22;44912;52.754;5.994;2024-01-06T06:39:38;2.80;99.90
59128;DHT22;44912;52.754;5.994;2024-01-06T06:42:04;2.80;99.90
59128;DHT22;44912;52.754;5.994;2024-01-06T06:44:30;2.80;99.90
59128;DHT22;44912;52.754;5.994;2024-01-06T06:46:56;2.80;99.90
59128;DHT22;44912;52.754;5.994;2024-01-06T06:49:21;2.70;99.90
59128;DHT22;44912;52.754;5.994;2024-01-06T06:51:47;2.80;99.90
59128;DHT22;44912;52.754;5.994;2024-01-06T06:54:14;2.70;99.90
59128;DHT22;44912;52.754;5.994;2024-01-06T06:56:44;2.70;99.90
59128;DHT22;44912;52.754;5.994;2024-01-06T06:59:10;2.70;99.90
59128;DHT22;44912;52.754;5.994;2024-01-06T07:01:35;2.70;99.90
59128;DHT22;44912;52.754;5.994;2024-01-06T07:04:04;2.70;99.90
59128;DHT22;44912;52.754;5.994;2024-01-06T07:06:30;2.70;99.90
59128;DHT22;44912;52.754;5.994;2024-01-06T07:08:56;2.70;99.90
59128;DHT22;44912;52.754;5.994;2024-01-06T07:11:22;2.70;99.90
59128;DHT22;44912;52.754;5.994;2024-01-06T07:13:47;2.70;99.90
59128;DHT22;44912;52.754;5.994;2024-01-06T07:16:13;2.70;99.90
59128;DHT22;44912;52.754;5.994;2024-01-06T07:18:39;2.70;99.90
59128;DHT22;44912;52.754;5.994;2024-01-06T07:21:05;2.70;99.90
59128;DHT22;44912;52.754;5.994;2024-01-06T07:23:32;2.70;99.90
59128;DHT22;44912;52.754;5.994;2024-01-06T07:25:58;2.70;99.90
59128;DHT22;44912;52.754;5.994;2024-01-06T07:28:23;2.70;99.90
59128;DHT22;44912;52.754;5.994;2024-01-06T07:30:49;2.70;99.90
59128;DHT22;44912;52.754;5.994;2024-01-06T07:33:15;2.70;99.90
59128;DHT22;44912;52.754;5.994;2024-01-06T07:35:40;2.60;99.90
59128;DHT22;44912;52.754;5.994;2024-01-06T07:38:12;2.60;99.90
59128;DHT22;44912;52.754;5.994;2024-01-06T07:40:38;2.70;99.90
59128;DHT22;44912;52.754;5.994;2024-01-06T07:43:03;2.60;99.90
59128;DHT22;44912;52.754;5.994;2024-01-06T07:45:30;2.60;99.90
59128;DHT22;44912;52.754;5.994;2024-01-06T07:47:59;2.60;99.90
59128;DHT22;44912;52.754;5.994;2024-01-06T07:50:26;2.70;99.90
59128;DHT22;44912;52.754;5.994;2024-01-06T07:52:52;2.70;99.90
59128;DHT22;44912;52.754;5.994;2024-01-06T07:55:18;2.70;99.90
59128;DHT22;44912;52.754;5.994;2024-01-06T07:57:44;2.70;99.90
59128;DHT22;44912;52.754;5.994;2024-01-06T08:00:10;2.70;99.90
59128;DHT22;44912;52.754;5.994;2024-01-06T08:02:40;2.70;99.90
59128;DHT22;44912;52.754;5.994;2024-01-06T08:05:06;2.70;99.90
59128;DHT22;44912;52.754;5.994;2024-01-06T08:07:32;2.70;99.90
59128;DHT22;44912;52.754;5.994;2024-01-06T08:09:58;2.70;99.90
59128;DHT22;44912;52.754;5.994;2024-01-06T08:12:23;2.70;99.90
59128;DHT22;44912;52.754;5.994;2024-01-06T08:14:49;2.70;99.90
59128;DHT22;44912;52.754;5.994;2024-01-06T08:17:14;2.70;99.90
59128;DHT22;44912;52.754;5.994;2024-01-06T08:19:40;2.70;99.90
59128;DHT22;44912;52.754;5.994;2024-01-06T08:22:07;2.70;99.90
59128;DHT22;44912;52.754;5.994;2024-01-06T08:24:32;2.70;99.90
59128;DHT22;44912;52.754;5.994;2024-01-06T08:26:59;2.70;99.90
59128;DHT22;44912;52.754;5.994;2024-01-06T08:29:25;2.80;99.90
59128;DHT22;44912;52.754;5.994;2024-01-06T08:31:50;2.80;99.90
59128;DHT22;44912;52.754;5.994;2024-01-06T08:34:18;2.80;99.90
59128;DHT22;44912;52.754;5.994;2024-01-06T08:36:44;2.80;99.90
59128;DHT22;44912;52.754;5.994;2024-01-06T08:39:09;2.70;99.90
59128;DHT22;44912;52.754;5.994;2024-01-06T08:41:35;2.70;99.90
59128;DHT22;44912;52.754;5.994;2024-01-06T08:44:00;2.80;99.90
59128;DHT22;44912;52.754;5.994;2024-01-06T08:46:26;2.80;99.90
59128;DHT22;44912;52.754;5.994;2024-01-06T08:48:52;2.80;99.90
59128;DHT22;44912;52.754;5.994;2024-01-06T08:51:17;2.80;99.90
59128;DHT22;44912;52.754;5.994;2024-01-06T08:53:45;2.80;99.90
59128;DHT22;44912;52.754;5.994;2024-01-06T08:56:11;2.80;99.90
59128;DHT22;44912;52.754;5.994;2024-01-06T08:58:37;2.80;99.90
59128;DHT22;44912;52.754;5.994;2024-01-06T09:01:02;2.80;99.90
59128;DHT22;44912;52.754;5.994;2024-01-06T09:03:28;2.80;99.90
59128;DHT22;44912;52.754;5.994;2024-01-06T09:05:55;2.80;99.90
59128;DHT22;44912;52.754;5.994;2024-01-06T09:08:22;2.90;99.90
59128;DHT22;44912;52.754;5.994;2024-01-06T09:10:49;3.00;99.90
59128;DHT22;44912;52.754;5.994;2024-01-06T09:13:17;3.00;99.90
59128;DHT22;44912;52.754;5.994;2024-01-06T09:15:43;2.90;99.90
59128;DHT22;44912;52.754;5.994;2024-01-06T09:18:09;2.90;99.90
59128;DHT22;44912;52.754;5.994;2024-01-06T09:20:34;2.90;99.90
59128;DHT22;44912;52.754;5.994;2024-01-06T09:23:00;2.90;99.90
59128;DHT22;44912;52.754;5.994;2024-01-06T09:25:26;3.00;99.90
59128;DHT22;44912;52.754;5.994;2024-01-06T09:27:52;3.10;99.90
59128;DHT22;44912;52.754;5.994;2024-01-06T09:30:18;3.10;99.90
59128;DHT22;44912;52.754;5.994;2024-01-06T09:32:44;3.00;99.90
59128;DHT22;44912;52.754;5.994;2024-01-06T09:35:10;3.00;99.90
59128;DHT22;44912;52.754;5.994;2024-01-06T09:37:35;3.00;99.90
59128;DHT22;44912;52.754;5.994;2024-01-06T09:40:01;3.10;99.90
59128;DHT22;44912;52.754;5.994;2024-01-06T09:42:26;3.00;99.90
59128;DHT22;44912;52.754;5.994;2024-01-06T09:44:52;3.00;99.90
59128;DHT22;44912;52.754;5.994;2024-01-06T09:47:18;3.00;99.90
59128;DHT22;44912;52.754;5.994;2024-01-06T09:49:50;3.00;99.90
59128;DHT22;44912;52.754;5.994;2024-01-06T09:52:21;3.00;99.90
59128;DHT22;44912;52.754;5.994;2024-01-06T09:54:51;3.00;99.90
59128;DHT22;44912;52.754;5.994;2024-01-06T09:57:17;3.00;99.90
59128;DHT22;44912;52.754;5.994;2024-01-06T09:59:44;3.00;99.90
59128;DHT22;44912;52.754;5.994;2024-01-06T10:02:16;3.00;99.90
59128;DHT22;44912;52.754;5.994;2024-01-06T10:04:45;3.10;99.90
59128;DHT22;44912;52.754;5.994;2024-01-06T10:07:11;3.00;99.90
59128;DHT22;44912;52.754;5.994;2024-01-06T10:09:41;3.00;99.90
59128;DHT22;44912;52.754;5.994;2024-01-06T10:12:08;3.00;99.90
59128;DHT22;44912;52.754;5.994;2024-01-06T10:14:35;3.00;99.90
59128;DHT22;44912;52.754;5.994;2024-01-06T10:17:01;3.00;99.90
59128;DHT22;44912;52.754;5.994;2024-01-06T10:19:26;3.00;99.90
59128;DHT22;44912;52.754;5.994;2024-01-06T10:21:52;3.00;99.90
59128;DHT22;44912;52.754;5.994;2024-01-06T10:24:18;3.00;99.90
59128;DHT22;44912;52.754;5.994;2024-01-06T10:26:45;3.00;99.90
59128;DHT22;44912;52.754;5.994;2024-01-06T10:29:11;3.00;99.90
59128;DHT22;44912;52.754;5.994;2024-01-06T10:31:38;3.00;99.90
59128;DHT22;44912;52.754;5.994;2024-01-06T10:34:04;3.00;99.90
59128;DHT22;44912;52.754;5.994;2024-01-06T10:36:31;3.00;99.90
59128;DHT22;44912;52.754;5.994;2024-01-06T10:38:57;3.10;99.90
59128;DHT22;44912;52.754;5.994;2024-01-06T10:41:24;3.10;99.90
59128;DHT22;44912;52.754;5.994;2024-01-06T10:43:51;3.10;99.90
59128;DHT22;44912;52.754;5.994;2024-01-06T10:46:19;3.10;99.90
59128;DHT22;44912;52.754;5.994;2024-01-06T10:48:46;3.10;99.90
59128;DHT22;44912;52.754;5.994;2024-01-06T10:51:13;3.10;99.90
59128;DHT22;44912;52.754;5.994;2024-01-06T10:53:42;3.10;99.90
59128;DHT22;44912;52.754;5.994;2024-01-06T10:56:09;3.10;99.90
59128;DHT22;44912;52.754;5.994;2024-01-06T10:58:36;3.10;99.90
59128;DHT22;44912;52.754;5.994;2024-01-06T11:01:09;3.10;99.90
59128;DHT22;44912;52.754;5.994;2024-01-06T11:03:36;3.10;99.90
59128;DHT22;44912;52.754;5.994;2024-01-06T11:06:02;3.10;99.90
59128;DHT22;44912;52.754;5.994;2024-01-06T11:08:28;3.00;99.90
59128;DHT22;44912;52.754;5.994;2024-01-06T11:10:55;3.10;99.90
59128;DHT22;44912;52.754;5.994;2024-01-06T11:13:23;3.10;99.90
59128;DHT22;44912;52.754;5.994;2024-01-06T11:15:53;3.10;99.90
59128;DHT22;44912;52.754;5.994;2024-01-06T11:18:38;3.10;99.90
59128;DHT22;44912;52.754;5.994;2024-01-06T11:21:24;3.10;99.90
59128;DHT22;44912;52.754;5.994;2024-01-06T11:26:39;3.10;99.90
59128;DHT22;44912;52.754;5.994;2024-01-06T11:29:06;3.10;99.90
59128;DHT22;44912;52.754;5.994;2024-01-06T11:31:33;3.20;99.90
59128;DHT22;44912;52.754;5.994;2024-01-06T11:34:21;3.30;99.90
59128;DHT22;44912;52.754;5.994;2024-01-06T11:36:50;3.20;99.90
59128;DHT22;44912;52.754;5.994;2024-01-06T11:39:35;3.20;99.90
59128;DHT22;44912;52.754;5.994;2024-01-06T11:42:04;3.10;99.90
59128;DHT22;44912;52.754;5.994;2024-01-06T11:44:34;3.20;99.90
59128;DHT22;44912;52.754;5.994;2024-01-06T11:47:00;3.20;99.90
59128;DHT22;44912;52.754;5.994;2024-01-06T11:49:27;3.20;99.90
59128;DHT22;44912;52.754;5.994;2024-01-06T11:51:53;3.20;99.90
59128;DHT22;44912;52.754;5.994;2024-01-06T11:54:21;3.20;99.90
59128;DHT22;44912;52.754;5.994;2024-01-06T11:56:46;3.30;99.90
59128;DHT22;44912;52.754;5.994;2024-01-06T11:59:12;3.30;99.90
59128;DHT22;44912;52.754;5.994;2024-01-06T12:01:38;3.30;99.90
59128;DHT22;44912;52.754;5.994;2024-01-06T12:04:05;3.30;99.90
59128;DHT22;44912;52.754;5.994;2024-01-06T12:06:31;3.30;99.90
59128;DHT22;44912;52.754;5.994;2024-01-06T12:09:10;3.30;99.90
59128;DHT22;44912;52.754;5.994;2024-01-06T12:11:36;3.30;99.90
59128;DHT22;44912;52.754;5.994;2024-01-06T12:14:04;3.30;99.90
59128;DHT22;44912;52.754;5.994;2024-01-06T12:16:31;3.30;99.90
59128;DHT22;44912;52.754;5.994;2024-01-06T12:18:59;3.30;99.90
59128;DHT22;44912;52.754;5.994;2024-01-06T12:21:26;3.40;99.90
59128;DHT22;44912;52.754;5.994;2024-01-06T12:23:53;3.40;99.90
59128;DHT22;44912;52.754;5.994;2024-01-06T12:26:18;3.50;99.90
59128;DHT22;44912;52.754;5.994;2024-01-06T12:28:45;3.50;99.90
59128;DHT22;44912;52.754;5.994;2024-01-06T12:31:11;3.50;99.90
59128;DHT22;44912;52.754;5.994;2024-01-06T12:33:41;3.50;99.90
59128;DHT22;44912;52.754;5.994;2024-01-06T12:36:07;3.50;99.90
59128;DHT22;44912;52.754;5.994;2024-01-06T12:38:37;3.50;99.90
59128;DHT22;44912;52.754;5.994;2024-01-06T12:41:04;3.50;99.90
59128;DHT22;44912;52.754;5.994;2024-01-06T12:43:30;3.50;99.90
59128;DHT22;44912;52.754;5.994;2024-01-06T12:45:55;3.50;99.90
59128;DHT22;44912;52.754;5.994;2024-01-06T12:48:23;3.50;99.90
59128;DHT22;44912;52.754;5.994;2024-01-06T12:50:49;3.50;99.90
59128;DHT22;44912;52.754;5.994;2024-01-06T12:53:14;3.50;99.90
59128;DHT22;44912;52.754;5.994;2024-01-06T12:55:43;3.60;99.90
59128;DHT22;44912;52.754;5.994;2024-01-06T12:58:09;3.60;99.90
59128;DHT22;44912;52.754;5.994;2024-01-06T13:00:35;3.50;99.90
59128;DHT22;44912;52.754;5.994;2024-01-06T13:03:00;3.50;99.90
59128;DHT22;44912;52.754;5.994;2024-01-06T13:05:26;3.50;99.90
59128;DHT22;44912;52.754;5.994;2024-01-06T13:07:52;3.50;99.90
59128;DHT22;44912;52.754;5.994;2024-01-06T13:10:17;3.50;99.90
59128;DHT22;44912;52.754;5.994;2024-01-06T13:12:43;3.40;99.90
59128;DHT22;44912;52.754;5.994;2024-01-06T13:15:09;3.50;99.90
59128;DHT22;44912;52.754;5.994;2024-01-06T13:17:39;3.50;99.90
59128;DHT22;44912;52.754;5.994;2024-01-06T13:20:06;3.50;99.90
59128;DHT22;44912;52.754;5.994;2024-01-06T13:22:33;3.50;99.90
59128;DHT22;44912;52.754;5.994;2024-01-06T13:24:58;3.50;99.90
59128;DHT22;44912;52.754;5.994;2024-01-06T13:27:25;3.50;99.90
59128;DHT22;44912;52.754;5.994;2024-01-06T13:29:53;3.50;99.90
59128;DHT22;44912;52.754;5.994;2024-01-06T13:32:19;3.50;99.90
59128;DHT22;44912;52.754;5.994;2024-01-06T13:34:45;3.50;99.90
59128;DHT22;44912;52.754;5.994;2024-01-06T13:37:11;3.40;99.90
59128;DHT22;44912;52.754;5.994;2024-01-06T13:39:37;3.50;99.90
59128;DHT22;44912;52.754;5.994;2024-01-06T13:42:02;3.40;99.90
59128;DHT22;44912;52.754;5.994;2024-01-06T13:44:31;3.50;99.90
59128;DHT22;44912;52.754;5.994;2024-01-06T13:46:57;3.40;99.90
59128;DHT22;44912;52.754;5.994;2024-01-06T13:49:23;3.40;99.90
59128;DHT22;44912;52.754;5.994;2024-01-06T13:51:50;3.40;99.90
59128;DHT22;44912;52.754;5.994;2024-01-06T13:54:15;3.40;99.90
59128;DHT22;44912;52.754;5.994;2024-01-06T13:56:41;3.40;99.90
59128;DHT22;44912;52.754;5.994;2024-01-06T13:59:07;3.30;99.90
59128;DHT22;44912;52.754;5.994;2024-01-06T14:01:33;3.40;99.90
59128;DHT22;44912;52.754;5.994;2024-01-06T14:03:59;3.40;99.90
59128;DHT22;44912;52.754;5.994;2024-01-06T14:06:25;3.40;99.90
59128;DHT22;44912;52.754;5.994;2024-01-06T14:08:58;3.40;99.90
59128;DHT22;44912;52.754;5.994;2024-01-06T14:11:24;3.30;99.90
59128;DHT22;44912;52.754;5.994;2024-01-06T14:13:51;3.30;99.90
59128;DHT22;44912;52.754;5.994;2024-01-06T14:16:20;3.30;99.90
59128;DHT22;44912;52.754;5.994;2024-01-06T14:18:46;3.30;99.90
59128;DHT22;44912;52.754;5.994;2024-01-06T14:21:12;3.30;99.90
59128;DHT22;44912;52.754;5.994;2024-01-06T14:23:43;3.30;99.90
59128;DHT22;44912;52.754;5.994;2024-01-06T14:26:08;3.20;99.90
59128;DHT22;44912;52.754;5.994;2024-01-06T14:28:34;3.30;99.90
59128;DHT22;44912;52.754;5.994;2024-01-06T14:31:00;3.20;99.90
59128;DHT22;44912;52.754;5.994;2024-01-06T14:33:25;3.20;99.90
59128;DHT22;44912;52.754;5.994;2024-01-06T14:35:52;3.20;99.90
59128;DHT22;44912;52.754;5.994;2024-01-06T14:38:19;3.20;99.90
59128;DHT22;44912;52.754;5.994;2024-01-06T14:40:44;3.10;99.90
59128;DHT22;44912;52.754;5.994;2024-01-06T14:43:10;3.10;99.90
59128;DHT22;44912;52.754;5.994;2024-01-06T14:45:36;3.10;99.90
59128;DHT22;44912;52.754;5.994;2024-01-06T14:48:02;3.10;99.90
59128;DHT22;44912;52.754;5.994;2024-01-06T14:50:27;3.10;99.90
59128;DHT22;44912;52.754;5.994;2024-01-06T14:52:53;3.00;99.90
59128;DHT22;44912;52.754;5.994;2024-01-06T14:55:18;3.00;99.90
59128;DHT22;44912;52.754;5.994;2024-01-06T14:57:44;2.90;99.90
59128;DHT22;44912;52.754;5.994;2024-01-06T15:00:10;3.00;99.90
59128;DHT22;44912;52.754;5.994;2024-01-06T15:02:39;2.90;99.90
59128;DHT22;44912;52.754;5.994;2024-01-06T15:05:05;2.90;99.90
59128;DHT22;44912;52.754;5.994;2024-01-06T15:07:32;2.90;99.90
59128;DHT22;44912;52.754;5.994;2024-01-06T15:10:01;2.80;99.90
59128;DHT22;44912;52.754;5.994;2024-01-06T15:12:27;2.90;99.90
59128;DHT22;44912;52.754;5.994;2024-01-06T15:14:53;2.90;99.90
59128;DHT22;44912;52.754;5.994;2024-01-06T15:17:19;2.80;99.90
59128;DHT22;44912;52.754;5.994;2024-01-06T15:19:45;2.80;99.90
59128;DHT22;44912;52.754;5.994;2024-01-06T15:22:11;2.80;99.90
59128;DHT22;44912;52.754;5.994;2024-01-06T15:24:38;2.80;99.90
59128;DHT22;44912;52.754;5.994;2024-01-06T15:27:04;2.80;99.90
59128;DHT22;44912;52.754;5.994;2024-01-06T15:29:30;2.90;99.90
59128;DHT22;44912;52.754;5.994;2024-01-06T15:31:55;2.80;99.90
59128;DHT22;44912;52.754;5.994;2024-01-06T15:34:25;2.90;99.90
59128;DHT22;44912;52.754;5.994;2024-01-06T15:36:51;2.90;99.90
59128;DHT22;44912;52.754;5.994;2024-01-06T15:39:17;2.80;99.90
59128;DHT22;44912;52.754;5.994;2024-01-06T15:41:43;2.80;99.90